APG215 RPLL-RPVE
Flight info
| Callsign | APG215 |
|---|---|
| Flight time | 0h 35m |
| Altitude | 25000 |
| Route | VERDE2R VERDE W24 TAPER TAPER7A |
| Aircraft | A320/M-SDE3FGHIRWY/LB1 |
Departure
| Time | 2026-05-05 07:15 |
|---|---|
| Airport | Ninoy Aquino International Airport (RPLL) |
Arrival
| Time | 2026-05-05 07:50 |
|---|---|
| Airport | Godofredo P. Ramos Airport (RPVE) |
| Time | Latitude | Longitude | Altitude | Speed | Heading |
|---|---|---|---|---|---|
| 2026-05-05 06:58 | 14.50855 | 121.01279 | 82 ft | 0 kts | 330° |
| 2026-05-05 07:05 | 14.50848 | 121.01283 | 82 ft | 2 kts | 330° |
| 2026-05-05 07:05 | 14.50834 | 121.01291 | 82 ft | 2 kts | 330° |
| 2026-05-05 07:05 | 14.50821 | 121.01299 | 82 ft | 2 kts | 330° |
| 2026-05-05 07:06 | 14.50808 | 121.01306 | 82 ft | 0 kts | 330° |
| 2026-05-05 07:06 | 14.50798 | 121.01313 | 82 ft | 2 kts | 316° |
| 2026-05-05 07:06 | 14.50788 | 121.01326 | 82 ft | 2 kts | 299° |
| 2026-05-05 07:06 | 14.50782 | 121.01341 | 82 ft | 2 kts | 282° |
| 2026-05-05 07:07 | 14.50780 | 121.01357 | 82 ft | 2 kts | 265° |
| 2026-05-05 07:07 | 14.50784 | 121.01374 | 82 ft | 2 kts | 248° |
| 2026-05-05 07:07 | 14.50787 | 121.01381 | 82 ft | 1 kts | 238° |
| 2026-05-05 07:07 | 14.50788 | 121.01383 | 82 ft | 0 kts | 240° |
| 2026-05-05 07:09 | 14.50787 | 121.01381 | 82 ft | 1 kts | 240° |
| 2026-05-05 07:09 | 14.50772 | 121.01354 | 82 ft | 5 kts | 240° |
| 2026-05-05 07:09 | 14.50746 | 121.01318 | 82 ft | 6 kts | 215° |
| 2026-05-05 07:10 | 14.50699 | 121.01320 | 82 ft | 6 kts | 172° |
| 2026-05-05 07:10 | 14.50654 | 121.01291 | 82 ft | 8 kts | 236° |
| 2026-05-05 07:10 | 14.50620 | 121.01232 | 82 ft | 9 kts | 240° |
| 2026-05-05 07:10 | 14.50584 | 121.01166 | 82 ft | 11 kts | 240° |
| 2026-05-05 07:11 | 14.50536 | 121.01080 | 82 ft | 15 kts | 239° |
| 2026-05-05 07:11 | 14.50478 | 121.00974 | 82 ft | 18 kts | 240° |
| 2026-05-05 07:11 | 14.50407 | 121.00848 | 82 ft | 19 kts | 239° |
| 2026-05-05 07:11 | 14.50337 | 121.00726 | 82 ft | 19 kts | 243° |
| 2026-05-05 07:12 | 14.50271 | 121.00602 | 82 ft | 19 kts | 239° |
| 2026-05-05 07:12 | 14.50202 | 121.00478 | 82 ft | 19 kts | 239° |
| 2026-05-05 07:12 | 14.50128 | 121.00345 | 82 ft | 19 kts | 240° |
| 2026-05-05 07:12 | 14.50060 | 121.00223 | 82 ft | 18 kts | 240° |
| 2026-05-05 07:13 | 14.49993 | 121.00103 | 82 ft | 18 kts | 240° |
| 2026-05-05 07:13 | 14.49929 | 120.99989 | 82 ft | 10 kts | 235° |
| 2026-05-05 07:13 | 14.49866 | 120.99971 | 82 ft | 9 kts | 154° |
| 2026-05-05 07:13 | 14.49808 | 121.00008 | 82 ft | 6 kts | 137° |
| 2026-05-05 07:14 | 14.49805 | 121.00049 | 82 ft | 5 kts | 62° |
| 2026-05-05 07:14 | 14.49817 | 121.00072 | 82 ft | 3 kts | 60° |
| 2026-05-05 07:14 | 14.49934 | 121.00284 | 82 ft | 69 kts | 60° |
| 2026-05-05 07:14 | 14.50322 | 121.00982 | 82 ft | 138 kts | 60° |
| 2026-05-05 07:15 | 14.50936 | 121.02158 | 378 ft | 170 kts | 63° |
| 2026-05-05 07:15 | 14.51604 | 121.03335 | 1214 ft | 165 kts | 62° |
| 2026-05-05 07:15 | 14.52255 | 121.04458 | 2018 ft | 160 kts | 62° |
| 2026-05-05 07:15 | 14.52908 | 121.05609 | 2456 ft | 174 kts | 63° |
| 2026-05-05 07:16 | 14.53578 | 121.06834 | 2876 ft | 189 kts | 62° |
| 2026-05-05 07:16 | 14.54290 | 121.08106 | 3232 ft | 208 kts | 61° |
| 2026-05-05 07:16 | 14.55015 | 121.09501 | 3578 ft | 228 kts | 74° |
| 2026-05-05 07:16 | 14.54934 | 121.11247 | 3975 ft | 247 kts | 114° |
| 2026-05-05 07:17 | 14.53742 | 121.12596 | 4458 ft | 266 kts | 150° |
| 2026-05-05 07:17 | 14.51932 | 121.13008 | 5079 ft | 278 kts | 180° |
| 2026-05-05 07:17 | 14.49998 | 121.12791 | 5859 ft | 281 kts | 186° |
| 2026-05-05 07:17 | 14.48057 | 121.12495 | 6661 ft | 283 kts | 186° |
| 2026-05-05 07:18 | 14.46092 | 121.12222 | 7431 ft | 285 kts | 185° |
| 2026-05-05 07:18 | 14.44122 | 121.11980 | 8169 ft | 288 kts | 184° |
| 2026-05-05 07:18 | 14.42128 | 121.11759 | 8896 ft | 291 kts | 184° |
| 2026-05-05 07:18 | 14.40090 | 121.11549 | 9616 ft | 293 kts | 183° |
| 2026-05-05 07:19 | 14.38045 | 121.11346 | 10299 ft | 297 kts | 183° |
| 2026-05-05 07:19 | 14.35941 | 121.11146 | 10710 ft | 311 kts | 183° |
| 2026-05-05 07:19 | 14.33738 | 121.10939 | 10996 ft | 328 kts | 183° |
| 2026-05-05 07:19 | 14.31387 | 121.10719 | 11265 ft | 344 kts | 183° |
| 2026-05-05 07:20 | 14.28946 | 121.10492 | 11577 ft | 357 kts | 183° |
| 2026-05-05 07:20 | 14.26469 | 121.10260 | 12088 ft | 361 kts | 184° |
| 2026-05-05 07:20 | 14.23942 | 121.10025 | 12651 ft | 364 kts | 184° |
| 2026-05-05 07:20 | 14.21401 | 121.09789 | 13182 ft | 368 kts | 184° |
| 2026-05-05 07:21 | 14.18821 | 121.09547 | 13689 ft | 371 kts | 184° |
| 2026-05-05 07:21 | 14.16264 | 121.09308 | 14220 ft | 373 kts | 184° |
| 2026-05-05 07:21 | 14.13653 | 121.09064 | 14736 ft | 376 kts | 184° |
| 2026-05-05 07:21 | 14.11030 | 121.08820 | 15232 ft | 378 kts | 184° |
| 2026-05-05 07:22 | 14.08391 | 121.08575 | 15719 ft | 380 kts | 184° |
| 2026-05-05 07:22 | 14.05742 | 121.08328 | 16195 ft | 382 kts | 184° |
| 2026-05-05 07:22 | 14.03056 | 121.08080 | 16662 ft | 384 kts | 184° |
| 2026-05-05 07:22 | 14.00385 | 121.07834 | 17125 ft | 386 kts | 184° |
| 2026-05-05 07:23 | 13.97661 | 121.07581 | 17569 ft | 388 kts | 184° |
| 2026-05-05 07:23 | 13.94930 | 121.07327 | 17997 ft | 391 kts | 184° |
| 2026-05-05 07:23 | 13.92197 | 121.07072 | 18396 ft | 393 kts | 184° |
| 2026-05-05 07:23 | 13.89474 | 121.06820 | 18779 ft | 396 kts | 184° |
| 2026-05-05 07:24 | 13.86701 | 121.06562 | 19165 ft | 398 kts | 184° |
| 2026-05-05 07:24 | 13.83894 | 121.06301 | 19546 ft | 400 kts | 184° |
| 2026-05-05 07:24 | 13.81097 | 121.06043 | 19920 ft | 403 kts | 184° |
| 2026-05-05 07:24 | 13.78317 | 121.05785 | 20270 ft | 406 kts | 184° |
| 2026-05-05 07:25 | 13.75472 | 121.05522 | 20630 ft | 408 kts | 184° |
| 2026-05-05 07:25 | 13.72617 | 121.05257 | 20984 ft | 410 kts | 184° |
| 2026-05-05 07:25 | 13.69770 | 121.04993 | 21345 ft | 413 kts | 184° |
| 2026-05-05 07:25 | 13.66882 | 121.04726 | 21697 ft | 415 kts | 184° |
| 2026-05-05 07:26 | 13.63998 | 121.04459 | 22037 ft | 417 kts | 184° |
| 2026-05-05 07:26 | 13.61113 | 121.04190 | 22379 ft | 419 kts | 184° |
| 2026-05-05 07:26 | 13.58206 | 121.03920 | 22726 ft | 420 kts | 184° |
| 2026-05-05 07:26 | 13.55259 | 121.03648 | 23075 ft | 422 kts | 184° |
| 2026-05-05 07:27 | 13.52327 | 121.03597 | 23378 ft | 423 kts | 173° |
| 2026-05-05 07:27 | 13.49434 | 121.04263 | 23703 ft | 424 kts | 159° |
| 2026-05-05 07:27 | 13.46792 | 121.05605 | 24018 ft | 424 kts | 147° |
| 2026-05-05 07:27 | 13.44366 | 121.07291 | 24331 ft | 426 kts | 145° |
| 2026-05-05 07:28 | 13.41918 | 121.09061 | 24618 ft | 428 kts | 144° |
| 2026-05-05 07:28 | 13.39484 | 121.10812 | 24878 ft | 430 kts | 145° |
| 2026-05-05 07:28 | 13.37017 | 121.12563 | 24917 ft | 430 kts | 145° |
| 2026-05-05 07:28 | 13.34520 | 121.14320 | 24927 ft | 430 kts | 145° |
| 2026-05-05 07:29 | 13.32049 | 121.16053 | 24933 ft | 430 kts | 145° |
| 2026-05-05 07:29 | 13.29548 | 121.17806 | 24936 ft | 439 kts | 145° |
| 2026-05-05 07:29 | 13.27004 | 121.19589 | 24930 ft | 448 kts | 145° |
| 2026-05-05 07:29 | 13.24421 | 121.21400 | 24918 ft | 456 kts | 145° |
| 2026-05-05 07:30 | 13.21764 | 121.23263 | 24900 ft | 459 kts | 145° |
| 2026-05-05 07:30 | 13.16474 | 121.26970 | 24886 ft | 461 kts | 145° |
| 2026-05-05 07:30 | 13.13822 | 121.28828 | 24888 ft | 461 kts | 145° |
| 2026-05-05 07:31 | 13.11179 | 121.30679 | 24893 ft | 461 kts | 145° |
| 2026-05-05 07:31 | 13.08527 | 121.32536 | 24897 ft | 461 kts | 145° |
| 2026-05-05 07:31 | 13.05898 | 121.34377 | 24899 ft | 461 kts | 145° |
| 2026-05-05 07:31 | 13.03243 | 121.36235 | 24901 ft | 461 kts | 145° |
| 2026-05-05 07:32 | 13.00563 | 121.38110 | 24900 ft | 461 kts | 145° |
| 2026-05-05 07:32 | 12.97929 | 121.39954 | 24888 ft | 460 kts | 145° |
| 2026-05-05 07:32 | 12.95262 | 121.41818 | 24588 ft | 460 kts | 145° |
| 2026-05-05 07:32 | 12.92574 | 121.43697 | 24183 ft | 458 kts | 145° |
| 2026-05-05 07:33 | 12.89926 | 121.45548 | 23682 ft | 455 kts | 145° |
| 2026-05-05 07:33 | 12.87016 | 121.47582 | 23069 ft | 451 kts | 145° |
| 2026-05-05 07:33 | 12.84232 | 121.49527 | 22455 ft | 448 kts | 145° |
| 2026-05-05 07:33 | 12.81666 | 121.51320 | 21877 ft | 444 kts | 145° |
| 2026-05-05 07:34 | 12.79137 | 121.53086 | 21309 ft | 440 kts | 145° |
| 2026-05-05 07:34 | 12.76533 | 121.54905 | 20721 ft | 436 kts | 144° |
| 2026-05-05 07:34 | 12.73999 | 121.56673 | 20157 ft | 433 kts | 144° |
| 2026-05-05 07:34 | 12.71525 | 121.58400 | 19591 ft | 429 kts | 144° |
| 2026-05-05 07:35 | 12.69065 | 121.60116 | 19018 ft | 425 kts | 144° |
| 2026-05-05 07:35 | 12.66618 | 121.61822 | 18553 ft | 417 kts | 144° |
| 2026-05-05 07:35 | 12.64227 | 121.63490 | 17971 ft | 412 kts | 144° |
| 2026-05-05 07:35 | 12.61867 | 121.65135 | 17393 ft | 406 kts | 144° |
| 2026-05-05 07:36 | 12.59538 | 121.66760 | 16841 ft | 402 kts | 144° |
| 2026-05-05 07:36 | 12.57225 | 121.68373 | 16281 ft | 397 kts | 144° |
| 2026-05-05 07:36 | 12.54925 | 121.69976 | 15730 ft | 394 kts | 144° |
| 2026-05-05 07:36 | 12.52685 | 121.71538 | 15177 ft | 390 kts | 144° |
| 2026-05-05 07:37 | 12.50423 | 121.73113 | 14629 ft | 387 kts | 144° |
| 2026-05-05 07:37 | 12.48213 | 121.74653 | 14079 ft | 384 kts | 144° |
| 2026-05-05 07:37 | 12.45971 | 121.76214 | 13539 ft | 380 kts | 144° |
| 2026-05-05 07:37 | 12.43773 | 121.77744 | 12996 ft | 377 kts | 144° |
| 2026-05-05 07:38 | 12.41606 | 121.79252 | 12466 ft | 373 kts | 144° |
| 2026-05-05 07:38 | 12.39466 | 121.80740 | 11936 ft | 369 kts | 144° |
| 2026-05-05 07:38 | 12.37181 | 121.82012 | 11367 ft | 368 kts | 160° |
| 2026-05-05 07:38 | 12.34615 | 121.82338 | 10856 ft | 366 kts | 183° |
| 2026-05-05 07:39 | 12.32112 | 121.81879 | 10623 ft | 353 kts | 190° |
| 2026-05-05 07:39 | 12.29726 | 121.81341 | 10446 ft | 340 kts | 191° |
| 2026-05-05 07:39 | 12.27427 | 121.80822 | 10268 ft | 327 kts | 190° |
| 2026-05-05 07:39 | 12.25239 | 121.80333 | 10113 ft | 314 kts | 190° |
| 2026-05-05 07:40 | 12.23093 | 121.79858 | 9931 ft | 304 kts | 190° |
| 2026-05-05 07:40 | 12.20999 | 121.79401 | 9537 ft | 302 kts | 190° |
| 2026-05-05 07:40 | 12.18919 | 121.78947 | 9147 ft | 300 kts | 189° |
| 2026-05-05 07:40 | 12.16815 | 121.78490 | 8761 ft | 298 kts | 189° |
| 2026-05-05 07:41 | 12.14764 | 121.78046 | 8384 ft | 296 kts | 189° |
| 2026-05-05 07:41 | 12.12723 | 121.77604 | 8016 ft | 294 kts | 189° |
| 2026-05-05 07:41 | 12.10702 | 121.77165 | 7655 ft | 292 kts | 189° |
| 2026-05-05 07:41 | 12.08696 | 121.76730 | 7300 ft | 290 kts | 189° |
| 2026-05-05 07:42 | 12.06716 | 121.76302 | 6948 ft | 288 kts | 189° |
| 2026-05-05 07:42 | 12.04756 | 121.75877 | 6600 ft | 286 kts | 189° |
| 2026-05-05 07:42 | 12.02821 | 121.75458 | 6255 ft | 284 kts | 189° |
| 2026-05-05 07:42 | 12.00850 | 121.75031 | 5909 ft | 282 kts | 189° |
| 2026-05-05 07:43 | 11.98923 | 121.74615 | 5570 ft | 281 kts | 189° |
| 2026-05-05 07:43 | 11.96979 | 121.74195 | 5226 ft | 279 kts | 188° |
| 2026-05-05 07:43 | 11.95040 | 121.73776 | 4887 ft | 277 kts | 189° |
| 2026-05-05 07:43 | 11.93153 | 121.73367 | 4567 ft | 275 kts | 188° |
| 2026-05-05 07:44 | 11.91254 | 121.73154 | 4225 ft | 269 kts | 170° |
| 2026-05-05 07:44 | 11.89473 | 121.73699 | 4094 ft | 251 kts | 150° |
| 2026-05-05 07:44 | 11.87913 | 121.74509 | 4062 ft | 236 kts | 148° |
| 2026-05-05 07:44 | 11.86480 | 121.75276 | 4020 ft | 223 kts | 148° |
| 2026-05-05 07:45 | 11.85102 | 121.76009 | 3991 ft | 220 kts | 147° |
| 2026-05-05 07:45 | 11.83935 | 121.76987 | 3836 ft | 205 kts | 114° |
| 2026-05-05 07:45 | 11.83743 | 121.78342 | 3642 ft | 193 kts | 72° |
| 2026-05-05 07:45 | 11.84369 | 121.79553 | 3426 ft | 190 kts | 60° |
| 2026-05-05 07:46 | 11.85038 | 121.80726 | 3171 ft | 188 kts | 62° |
| 2026-05-05 07:46 | 11.85660 | 121.81907 | 2947 ft | 184 kts | 63° |
| 2026-05-05 07:46 | 11.86240 | 121.83034 | 2745 ft | 177 kts | 64° |
| 2026-05-05 07:46 | 11.86807 | 121.84150 | 2504 ft | 171 kts | 64° |
| 2026-05-05 07:47 | 11.87341 | 121.85208 | 2221 ft | 166 kts | 64° |
| 2026-05-05 07:47 | 11.87860 | 121.86237 | 1958 ft | 154 kts | 64° |
| 2026-05-05 07:47 | 11.88324 | 121.87156 | 1726 ft | 141 kts | 65° |
| 2026-05-05 07:47 | 11.88752 | 121.88006 | 1514 ft | 128 kts | 65° |
| 2026-05-05 07:48 | 11.89157 | 121.88814 | 1348 ft | 126 kts | 65° |
| 2026-05-05 07:48 | 11.89555 | 121.89613 | 1209 ft | 126 kts | 65° |
| 2026-05-05 07:48 | 11.89948 | 121.90399 | 1050 ft | 126 kts | 65° |
| 2026-05-05 07:48 | 11.90352 | 121.91209 | 863 ft | 125 kts | 65° |
| 2026-05-05 07:49 | 11.90750 | 121.92010 | 666 ft | 125 kts | 66° |
| 2026-05-05 07:49 | 11.91144 | 121.92803 | 484 ft | 124 kts | 64° |
| 2026-05-05 07:49 | 11.91549 | 121.93587 | 341 ft | 124 kts | 65° |
| 2026-05-05 07:49 | 11.91952 | 121.94394 | 174 ft | 123 kts | 66° |
| 2026-05-05 07:50 | 11.92347 | 121.95179 | 24 ft | 122 kts | 66° |
| 2026-05-05 07:50 | 11.92642 | 121.95767 | 42 ft | 50 kts | 63° |
| 2026-05-05 07:50 | 11.92756 | 121.95995 | 52 ft | 30 kts | 62° |
| 2026-05-05 07:50 | 11.92802 | 121.96107 | 56 ft | 4 kts | 113° |
| 2026-05-05 07:51 | 11.92779 | 121.96124 | 56 ft | 4 kts | 152° |
| 2026-05-05 07:51 | 11.92746 | 121.96141 | 56 ft | 6 kts | 152° |
| 2026-05-05 07:51 | 11.92704 | 121.96164 | 56 ft | 7 kts | 153° |
| 2026-05-05 07:51 | 11.92654 | 121.96190 | 56 ft | 6 kts | 152° |
| 2026-05-05 07:52 | 11.92637 | 121.96206 | 56 ft | 2 kts | 98° |
| 2026-05-05 07:52 | 11.92644 | 121.96227 | 56 ft | 3 kts | 65° |
| 2026-05-05 07:52 | 11.92652 | 121.96246 | 57 ft | 2 kts | 63° |
| 2026-05-05 07:52 | 11.92662 | 121.96265 | 57 ft | 3 kts | 63° |
| 2026-05-05 07:53 | 11.92675 | 121.96292 | 58 ft | 3 kts | 64° |
| 2026-05-05 07:53 | 11.92669 | 121.96312 | 58 ft | 3 kts | 143° |
| 2026-05-05 07:53 | 11.92644 | 121.96326 | 58 ft | 3 kts | 152° |
| 2026-05-05 07:53 | 11.92632 | 121.96332 | 58 ft | 1 kts | 152° |
| 2026-05-05 07:54 | 11.92631 | 121.96332 | 58 ft | 0 kts | 152° |